Time;durP1;ratioP1;P1;durP2;ratioP2;P2;SDS_P1;SDS_P2;PMS_P1;PMS_P2;Temp;Humidity;BMP_temperature;BMP_pressure;BME280_temperature;BME280_humidity;BME280_pressure;Samples;Min_cycle;Max_cycle;Signal;HPM_P1;HPM_P2
2023/01/21 00:00:28;;;;;;;71.60;39.60;;;;;;;-3.11;100.00;102348.72;5244933;28;20033;-69
2023/01/21 00:03:00;;;;;;;72.50;38.90;;;;;;;-3.16;100.00;102344.97;5244662;28;20033;-69
2023/01/21 00:05:31;;;;;;;83.13;42.43;;;;;;;-3.16;100.00;102347.53;5244378;28;20164;-69
2023/01/21 00:08:03;;;;;;;81.10;45.63;;;;;;;-3.14;100.00;102351.97;5244979;28;20033;-70
2023/01/21 00:10:34;;;;;;;71.47;41.13;;;;;;;-3.16;100.00;102355.19;5244800;28;20057;-70
2023/01/21 00:13:05;;;;;;;67.53;40.40;;;;;;;-3.17;100.00;102373.81;5244298;28;20033;-70
2023/01/21 00:15:37;;;;;;;73.07;40.40;;;;;;;-3.20;100.00;102377.03;5243375;28;20392;-69
2023/01/21 00:18:08;;;;;;;76.47;40.13;;;;;;;-3.20;100.00;102371.06;5244138;28;20071;-70
2023/01/21 00:20:40;;;;;;;72.17;39.47;;;;;;;-3.20;100.00;102386.38;5245098;28;20037;-70
2023/01/21 00:23:11;;;;;;;68.20;38.47;;;;;;;-3.32;100.00;102381.28;5244431;28;20064;-70
2023/01/21 00:25:43;;;;;;;69.50;38.03;;;;;;;-3.35;100.00;102376.88;5244600;28;20057;-70
2023/01/21 00:28:14;;;;;;;68.00;40.53;;;;;;;-3.27;100.00;102384.16;5244671;28;20112;-70
2023/01/21 00:30:45;;;;;;;70.20;40.33;;;;;;;-3.29;100.00;102381.50;5244366;28;20414;-69
2023/01/21 00:33:17;;;;;;;78.33;41.67;;;;;;;-3.36;100.00;102382.75;5244324;28;20071;-70
2023/01/21 00:36:13;;;;;;;72.03;39.47;;;;;;;-3.41;100.00;102385.75;5244386;28;20033;-70
2023/01/21 00:38:47;;;;;;;75.10;41.83;;;;;;;-3.44;100.00;102390.66;5244061;28;20037;-70
2023/01/21 00:41:19;;;;;;;71.57;39.50;;;;;;;-3.42;100.00;102400.16;5244095;28;20072;-70
2023/01/21 00:43:51;;;;;;;74.43;41.43;;;;;;;-3.47;100.00;102393.88;5244129;28;20053;-70
2023/01/21 00:46:22;;;;;;;70.88;40.72;;;;;;;-3.50;100.00;102393.66;5243661;28;20487;-70
2023/01/21 00:48:54;;;;;;;76.77;42.97;;;;;;;-3.51;100.00;102402.97;5243811;28;20060;-70
2023/01/21 00:51:26;;;;;;;79.97;42.33;;;;;;;-3.58;100.00;102408.38;5243823;28;20045;-70
2023/01/21 00:53:58;;;;;;;78.77;40.53;;;;;;;-3.58;100.00;102402.41;5243716;28;20037;-69
2023/01/21 00:56:29;;;;;;;73.90;39.90;;;;;;;-3.58;100.00;102410.06;5244106;28;20037;-70
2023/01/21 00:59:00;;;;;;;70.83;40.53;;;;;;;-3.63;100.00;102414.84;5243829;28;20022;-70
2023/01/21 01:01:36;;;;;;;74.93;40.77;;;;;;;-3.63;100.00;102424.16;5243791;28;20063;-70
2023/01/21 01:04:09;;;;;;;71.38;40.72;;;;;;;-3.67;100.00;102434.13;5243671;28;20072;-70
2023/01/21 01:06:41;;;;;;;79.28;41.28;;;;;;;-3.67;100.00;102440.88;5243647;28;20033;-70
2023/01/21 01:09:12;;;;;;;75.90;41.13;;;;;;;-3.69;100.00;102434.78;5244196;28;20121;-70
2023/01/21 01:11:43;;;;;;;76.03;41.33;;;;;;;-3.73;100.00;102435.34;5243602;28;20030;-70
2023/01/21 01:14:15;;;;;;;74.73;42.60;;;;;;;-3.69;100.00;102447.53;5244341;28;20487;-70
2023/01/21 01:16:46;;;;;;;75.87;40.13;;;;;;;-3.75;100.00;102453.09;5244150;28;20417;-70
2023/01/21 01:19:18;;;;;;;79.90;42.50;;;;;;;-3.76;100.00;102456.41;5243329;28;20373;-70
2023/01/21 01:21:49;;;;;;;82.30;44.33;;;;;;;-3.72;100.00;102467.69;5243672;28;20029;-70
2023/01/21 01:24:20;;;;;;;88.80;44.67;;;;;;;-3.75;100.00;102476.00;5243507;28;20048;-70
2023/01/21 01:26:52;;;;;;;82.73;44.23;;;;;;;-3.76;100.00;102478.44;5241590;28;20421;-70
2023/01/21 01:29:23;;;;;;;84.50;43.60;;;;;;;-3.78;100.00;102487.63;5242523;28;20424;-70
2023/01/21 01:31:55;;;;;;;87.93;44.57;;;;;;;-3.81;100.00;102489.97;5243211;28;20037;-70
2023/01/21 01:34:26;;;;;;;81.87;43.73;;;;;;;-3.80;100.00;102495.19;5243116;28;20034;-70
2023/01/21 01:36:57;;;;;;;89.63;47.07;;;;;;;-3.79;100.00;102501.16;5242997;28;20108;-70
2023/01/21 01:39:30;;;;;;;82.30;44.43;;;;;;;-3.80;100.00;102497.72;5242960;28;20033;-70
2023/01/21 01:42:02;;;;;;;85.85;46.25;;;;;;;-3.74;100.00;102503.25;5242817;28;20472;-70
2023/01/21 01:44:57;;;;;;;91.03;46.05;;;;;;;-3.76;100.00;102514.13;5243301;28;20036;-70
2023/01/21 01:47:36;;;;;;;90.13;47.92;;;;;;;-3.81;100.00;102511.25;5242863;28;20045;-70
2023/01/21 01:50:11;;;;;;;95.15;49.67;;;;;;;-3.72;100.00;102513.56;5243654;28;20042;-70
2023/01/21 01:52:43;;;;;;;89.78;46.38;;;;;;;-3.73;100.00;102512.69;5242703;28;20512;-71
2023/01/21 01:55:15;;;;;;;98.75;50.83;;;;;;;-3.71;100.00;102523.00;5242499;28;20155;-70
2023/01/21 01:57:50;;;;;;;90.60;48.33;;;;;;;-3.74;100.00;102528.75;5241147;28;20190;-70
2023/01/21 02:00:23;;;;;;;91.05;48.58;;;;;;;-3.69;100.00;102531.63;5243038;28;20499;-70
2023/01/21 02:05:46;;;;;;;92.43;48.55;;;;;;;-3.71;100.00;102540.84;5243076;28;20100;-70
2023/01/21 02:08:19;;;;;;;99.10;51.33;;;;;;;-3.72;100.00;102539.03;5242410;28;20472;-70
2023/01/21 02:10:52;;;;;;;98.93;50.70;;;;;;;-3.79;100.00;102539.38;5242422;28;20057;-70
2023/01/21 02:13:27;;;;;;;95.45;51.65;;;;;;;-3.82;100.00;102537.47;5242303;28;20090;-70
2023/01/21 02:16:35;;;;;;;94.35;51.50;;;;;;;-3.82;100.00;102539.16;5242329;28;20021;-70
2023/01/21 02:19:41;;;;;;;96.47;51.10;;;;;;;-3.87;100.00;102549.00;5242107;28;20025;-70
2023/01/21 02:22:19;;;;;;;98.20;52.15;;;;;;;-3.93;100.00;102553.63;5242234;28;20033;-70
2023/01/21 02:25:39;;;;;;;97.85;50.50;;;;;;;-3.97;100.00;102562.72;5242360;28;20041;-70
2023/01/21 02:28:27;;;;;;;97.47;50.70;;;;;;;-4.02;100.00;102566.59;5240256;28;20506;-71
2023/01/21 02:31:28;;;;;;;97.50;50.28;;;;;;;-4.07;100.00;102568.78;5242407;28;20029;-70
2023/01/21 02:34:22;;;;;;;100.47;50.35;;;;;;;-4.11;100.00;102571.84;5242387;28;20025;-69
2023/01/21 02:37:04;;;;;;;108.90;54.40;;;;;;;-4.10;100.00;102565.13;5242005;28;20030;-71
2023/01/21 02:39:48;;;;;;;106.63;52.75;;;;;;;-4.10;100.00;102572.75;5241943;28;20025;-70
2023/01/21 02:42:19;;;;;;;100.45;53.88;;;;;;;-4.05;100.00;102568.91;5242143;28;20031;-70
2023/01/21 02:45:04;;;;;;;111.93;57.40;;;;;;;-4.05;100.00;102571.44;5241464;28;20034;-71
2023/01/21 02:47:41;;;;;;;106.68;54.38;;;;;;;-4.01;100.00;102578.53;5242344;28;20021;-70
2023/01/21 02:50:44;;;;;;;101.72;54.67;;;;;;;-4.03;100.00;102580.09;5241632;28;20381;-71
2023/01/21 02:53:33;;;;;;;111.70;55.45;;;;;;;-4.02;100.00;102589.50;5241521;28;20045;-71
2023/01/21 02:56:12;;;;;;;101.30;52.88;;;;;;;-4.03;100.00;102590.28;5241579;28;20465;-71
2023/01/21 02:58:53;;;;;;;104.93;56.05;;;;;;;-4.00;100.00;102597.28;5241041;28;20026;-70
2023/01/21 03:01:43;;;;;;;100.05;55.65;;;;;;;-4.01;100.00;102598.03;5241841;28;20030;-71
2023/01/21 03:04:30;;;;;;;106.22;54.92;;;;;;;-4.08;100.00;102602.66;5242028;28;20052;-71
2023/01/21 03:07:16;;;;;;;103.10;56.22;;;;;;;-4.08;100.00;102604.31;5241754;28;20311;-71
2023/01/21 03:09:47;;;;;;;109.10;59.30;;;;;;;-4.04;100.00;102598.72;5241326;28;20472;-71
2023/01/21 03:12:29;;;;;;;111.60;59.67;;;;;;;-4.08;100.00;102607.75;5241689;28;20030;-71
2023/01/21 03:17:56;;;;;;;134.23;65.60;;;;;;;-3.97;100.00;102607.69;5241960;28;20038;-71
2023/01/21 03:20:27;;;;;;;128.13;65.73;;;;;;;-3.93;100.00;102612.22;5241567;28;20030;-71
2023/01/21 03:23:09;;;;;;;124.80;64.13;;;;;;;-3.90;100.00;102618.44;5241536;28;20535;-71
2023/01/21 03:25:41;;;;;;;504.13;246.18;;;;;;;-3.88;100.00;102611.81;5242084;28;20049;-71
2023/01/21 03:28:18;;;;;;;141.23;75.77;;;;;;;-3.90;100.00;102615.00;5241774;28;20042;-71
2023/01/21 03:31:00;;;;;;;125.80;65.43;;;;;;;-3.95;100.00;102608.69;5241522;28;20056;-71
2023/01/21 03:33:35;;;;;;;129.07;68.15;;;;;;;-3.96;100.00;102612.91;5241764;28;20025;-71
2023/01/21 03:36:20;;;;;;;134.50;67.85;;;;;;;-3.95;100.00;102621.44;5240744;28;20048;-72
2023/01/21 03:38:55;;;;;;;140.50;74.03;;;;;;;-3.92;100.00;102622.53;5241569;28;20369;-72
2023/01/21 03:41:32;;;;;;;127.85;66.93;;;;;;;-4.01;100.00;102621.84;5241390;28;20469;-71
2023/01/21 03:44:04;;;;;;;161.40;85.18;;;;;;;-3.95;100.00;102629.06;5240204;28;20140;-71
2023/01/21 03:47:03;;;;;;;116.38;62.50;;;;;;;-3.99;100.00;102633.06;5241859;28;20039;-72
2023/01/21 03:49:42;;;;;;;133.20;71.97;;;;;;;-4.00;100.00;102636.34;5241991;28;20419;-71
2023/01/21 03:52:15;;;;;;;120.63;65.30;;;;;;;-4.04;100.00;102636.91;5242628;28;20144;-71
2023/01/21 03:54:47;;;;;;;;;;;;;;;-4.09;100.00;102646.75;5245568;28;20037;-71
2023/01/21 03:57:18;;;;;;;125.15;65.65;;;;;;;-4.09;100.00;102641.66;5244947;28;20368;-71
2023/01/21 03:59:50;;;;;;;101.63;54.10;;;;;;;-4.12;100.00;102651.59;5244654;28;20034;-71
2023/01/21 04:02:21;;;;;;;97.90;51.93;;;;;;;-4.10;100.00;102649.16;5244963;28;20037;-72
2023/01/21 04:04:53;;;;;;;96.37;49.80;;;;;;;-4.15;100.00;102648.81;5244888;28;20469;-72
2023/01/21 04:07:24;;;;;;;92.47;49.77;;;;;;;-4.15;100.00;102646.28;5244895;28;20033;-72
2023/01/21 04:09:55;;;;;;;93.93;52.03;;;;;;;-4.12;100.00;102651.59;5245177;28;20026;-72
2023/01/21 04:12:27;;;;;;;97.03;51.70;;;;;;;-4.17;100.00;102646.91;5245119;28;20057;-73
2023/01/21 04:14:58;;;;;;;100.73;54.87;;;;;;;-4.14;100.00;102650.56;5243972;28;20507;-71
2023/01/21 04:17:30;;;;;;;97.17;50.63;;;;;;;-4.13;100.00;102652.38;5244641;28;20029;-72
2023/01/21 04:20:01;;;;;;;99.13;52.33;;;;;;;-4.16;100.00;102657.22;5244474;28;20037;-72
2023/01/21 04:22:32;;;;;;;91.40;50.33;;;;;;;-4.19;100.00;102659.53;5244562;28;20034;-72
2023/01/21 04:25:04;;;;;;;92.93;48.23;;;;;;;-4.19;100.00;102659.53;5244435;28;20060;-72
2023/01/21 04:27:35;;;;;;;91.53;50.83;;;;;;;-4.21;100.00;102663.63;5244780;28;20379;-72
2023/01/21 04:30:07;;;;;;;92.43;48.13;;;;;;;-4.22;100.00;102669.47;5242974;28;20038;-72
2023/01/21 04:32:40;;;;;;;89.07;49.05;;;;;;;-4.18;100.00;102666.41;5244857;28;20461;-73
2023/01/21 04:35:11;;;;;;;92.07;47.83;;;;;;;-4.24;100.00;102668.47;5243118;28;20061;-73
2023/01/21 04:37:42;;;;;;;80.87;45.77;;;;;;;-4.25;100.00;102670.13;5243920;28;20104;-73
2023/01/21 04:40:14;;;;;;;87.00;45.43;;;;;;;-4.20;100.00;102667.94;5244327;28;20034;-73
2023/01/21 04:42:45;;;;;;;90.83;48.63;;;;;;;-4.23;100.00;102668.59;5243109;28;20040;-73
2023/01/21 04:45:17;;;;;;;91.67;45.83;;;;;;;-4.24;100.00;102666.81;5244450;28;20057;-73
2023/01/21 04:47:48;;;;;;;94.27;47.30;;;;;;;-4.24;100.00;102677.00;5243964;28;20370;-72
2023/01/21 04:50:19;;;;;;;89.10;44.13;;;;;;;-4.24;100.00;102684.63;5244563;28;20453;-72
2023/01/21 04:52:54;;;;;;;83.27;43.97;;;;;;;-4.25;100.00;102687.97;5244368;28;20045;-73
2023/01/21 04:55:25;;;;;;;88.05;42.42;;;;;;;-4.24;100.00;102682.09;5243957;28;20025;-73
2023/01/21 04:57:56;;;;;;;91.77;46.33;;;;;;;-4.26;100.00;102690.38;5243017;28;20037;-72
2023/01/21 05:00:28;;;;;;;83.60;45.77;;;;;;;-4.25;100.00;102699.78;5244122;28;20091;-73
2023/01/21 05:02:59;;;;;;;84.33;44.07;;;;;;;-4.29;100.00;102697.78;5243507;28;20495;-73
2023/01/21 05:05:30;;;;;;;85.33;44.53;;;;;;;-4.28;100.00;102702.09;5243006;28;20033;-73
2023/01/21 05:08:02;;;;;;;92.07;46.50;;;;;;;-4.28;100.00;102702.09;5243812;28;20120;-72
2023/01/21 05:10:33;;;;;;;83.97;44.23;;;;;;;-4.29;100.00;102711.41;5243692;28;20026;-72
2023/01/21 05:13:05;;;;;;;86.67;44.57;;;;;;;-4.27;100.00;102706.44;5243644;28;20037;-72
2023/01/21 05:15:36;;;;;;;83.20;43.47;;;;;;;-4.34;100.00;102707.59;5243358;28;20556;-72
2023/01/21 05:18:07;;;;;;;82.63;43.07;;;;;;;-4.28;100.00;102720.81;5243667;28;20041;-72
2023/01/21 05:20:39;;;;;;;86.93;43.70;;;;;;;-4.35;100.00;102715.13;5243424;28;20057;-72
2023/01/21 05:23:10;;;;;;;87.67;45.60;;;;;;;-4.34;100.00;102715.25;5243230;28;20041;-72
2023/01/21 05:25:42;;;;;;;87.87;45.17;;;;;;;-4.43;100.00;102719.59;5241969;28;20053;-72
2023/01/21 05:28:13;;;;;;;82.27;42.37;;;;;;;-4.45;100.00;102722.03;5243302;28;20045;-72
2023/01/21 05:30:44;;;;;;;80.77;42.77;;;;;;;-4.46;100.00;102719.34;5243263;28;20063;-72
2023/01/21 05:33:16;;;;;;;80.50;43.20;;;;;;;-4.49;100.00;102720.03;5243216;28;20033;-72
2023/01/21 05:35:47;;;;;;;83.53;40.90;;;;;;;-4.50;100.00;102730.97;5243130;28;20125;-72
2023/01/21 05:38:18;;;;;;;78.20;41.47;;;;;;;-4.54;100.00;102734.03;5241947;28;20033;-72
2023/01/21 05:40:55;;;;;;;90.27;42.97;;;;;;;-4.53;100.00;102737.47;5242873;28;20113;-72
2023/01/21 05:43:27;;;;;;;82.05;41.58;;;;;;;-4.57;100.00;102733.78;5243676;28;20551;-72
2023/01/21 05:45:58;;;;;;;86.85;43.45;;;;;;;-4.55;100.00;102739.88;5242750;28;20113;-72
2023/01/21 05:48:30;;;;;;;87.03;42.97;;;;;;;-4.55;100.00;102744.09;5242540;28;20030;-72
2023/01/21 05:51:02;;;;;;;80.50;43.33;;;;;;;-4.55;100.00;102754.28;5242488;28;20075;-72
2023/01/21 05:53:33;;;;;;;81.53;41.63;;;;;;;-4.52;100.00;102744.31;5242831;28;20029;-72
2023/01/21 05:56:05;;;;;;;79.97;41.77;;;;;;;-4.51;100.00;102751.19;5242867;28;20468;-72
2023/01/21 05:58:36;;;;;;;81.50;41.20;;;;;;;-4.54;100.00;102750.94;5242679;28;20125;-72
2023/01/21 06:01:08;;;;;;;82.07;41.70;;;;;;;-4.54;100.00;102756.03;5242687;28;20034;-72
2023/01/21 06:03:39;;;;;;;79.73;40.33;;;;;;;-4.55;100.00;102751.72;5242639;28;20033;-72
2023/01/21 06:06:10;;;;;;;78.47;42.50;;;;;;;-4.55;100.00;102752.63;5242637;28;20037;-72
2023/01/21 06:08:42;;;;;;;74.73;40.07;;;;;;;-4.54;100.00;102756.03;5241418;28;20036;-72
2023/01/21 06:11:13;;;;;;;84.27;42.70;;;;;;;-4.54;100.00;102766.22;5241569;28;20071;-72
2023/01/21 06:13:45;;;;;;;80.33;41.80;;;;;;;-4.59;100.00;102764.22;5242773;28;20029;-71
2023/01/21 06:16:16;;;;;;;79.90;40.00;;;;;;;-4.56;100.00;102762.66;5242167;28;20048;-72
2023/01/21 06:18:48;;;;;;;83.00;41.77;;;;;;;-4.55;100.00;102770.44;5242476;28;20379;-70
2023/01/21 06:21:19;;;;;;;87.33;41.60;;;;;;;-4.57;100.00;102771.97;5242618;28;20041;-71
2023/01/21 06:23:50;;;;;;;83.23;41.33;;;;;;;-4.59;100.00;102783.66;5242323;28;20033;-70
2023/01/21 06:26:22;;;;;;;83.40;42.70;;;;;;;-4.61;100.00;102778.44;5242169;28;20083;-70
2023/01/21 06:28:56;;;;;;;84.07;45.20;;;;;;;-4.66;100.00;102773.75;5242231;28;20025;-70
2023/01/21 06:31:28;;;;;;;77.60;41.75;;;;;;;-4.62;100.00;102781.78;5242150;28;20038;-71
2023/01/21 06:33:59;;;;;;;82.97;42.73;;;;;;;-4.64;100.00;102783.28;5241849;28;20030;-70
2023/01/21 06:36:30;;;;;;;99.10;50.97;;;;;;;-4.61;100.00;102783.53;5242082;28;20384;-71
2023/01/21 06:39:02;;;;;;;90.53;45.80;;;;;;;-4.62;100.00;102796.13;5242250;28;20465;-70
2023/01/21 06:41:33;;;;;;;93.73;48.43;;;;;;;-4.62;100.00;102798.69;5242251;28;20520;-70
2023/01/21 06:44:05;;;;;;;86.07;47.60;;;;;;;-4.67;100.00;102800.88;5242031;28;20060;-70
2023/01/21 06:46:37;;;;;;;85.07;43.67;;;;;;;-4.65;100.00;102813.72;5241686;28;20393;-70
2023/01/21 06:49:08;;;;;;;78.13;40.60;;;;;;;-4.64;100.00;102816.38;5241645;28;20037;-72
2023/01/21 06:51:39;;;;;;;91.37;45.70;;;;;;;-4.68;100.00;102814.34;5242160;28;20105;-72
2023/01/21 06:54:11;;;;;;;92.10;47.23;;;;;;;-4.67;100.00;102820.31;5241548;28;20064;-71
2023/01/21 06:56:43;;;;;;;83.43;47.27;;;;;;;-4.66;100.00;102819.56;5241623;28;20171;-72
2023/01/21 06:59:14;;;;;;;83.03;44.60;;;;;;;-4.72;100.00;102813.97;5241788;28;20033;-72
2023/01/21 07:01:45;;;;;;;88.67;44.40;;;;;;;-4.72;100.00;102819.06;5241763;28;20109;-71
2023/01/21 07:04:17;;;;;;;84.10;46.60;;;;;;;-4.71;100.00;102831.91;5241870;28;20061;-72
2023/01/21 07:06:48;;;;;;;91.27;46.93;;;;;;;-4.69;100.00;102826.94;5242304;28;20033;-71
2023/01/21 07:09:20;;;;;;;84.87;44.67;;;;;;;-4.70;100.00;102835.34;5242235;28;20029;-71
2023/01/21 07:11:51;;;;;;;95.83;46.80;;;;;;;-4.76;100.00;102831.53;5241792;28;20044;-71
2023/01/21 07:14:22;;;;;;;85.57;42.10;;;;;;;-4.72;100.00;102836.88;5241702;28;20033;-72
2023/01/21 07:16:54;;;;;;;82.43;42.87;;;;;;;-4.75;100.00;102837.50;5241664;28;20492;-72
2023/01/21 07:19:26;;;;;;;80.20;40.23;;;;;;;-4.73;100.00;102845.25;5240268;28;20099;-71
2023/01/21 07:21:57;;;;;;;79.27;41.77;;;;;;;-4.67;100.00;102851.78;5241730;28;20077;-72
2023/01/21 07:24:28;;;;;;;82.10;43.30;;;;;;;-4.77;100.00;102850.09;5242054;28;20036;-72
2023/01/21 07:27:00;;;;;;;89.03;45.60;;;;;;;-4.73;100.00;102855.44;5242758;28;20049;-72
2023/01/21 07:29:31;;;;;;;83.20;43.03;;;;;;;-4.69;100.00;102857.50;5245014;28;20350;-72
2023/01/21 07:32:03;;;;;;;80.13;42.33;;;;;;;-4.71;100.00;102865.00;5245216;28;20453;-72
2023/01/21 07:34:34;;;;;;;88.87;44.60;;;;;;;-4.70;100.00;102865.88;5245920;28;20368;-72
2023/01/21 07:37:06;;;;;;;90.73;42.17;;;;;;;-4.74;100.00;102867.28;5245115;28;20044;-72
2023/01/21 07:39:37;;;;;;;82.50;40.90;;;;;;;-4.70;100.00;102874.41;5244743;28;20480;-72
2023/01/21 07:42:09;;;;;;;87.80;45.93;;;;;;;-4.67;100.00;102886.50;5245221;28;20081;-72
2023/01/21 07:44:40;;;;;;;79.88;41.13;;;;;;;-4.71;100.00;102885.34;5245245;28;20045;-72
2023/01/21 07:47:12;;;;;;;88.67;43.57;;;;;;;-4.63;100.00;102896.16;5244900;28;20469;-72
2023/01/21 07:49:43;;;;;;;86.47;41.50;;;;;;;-4.65;100.00;102890.97;5244806;28;20112;-72
2023/01/21 07:52:14;;;;;;;79.47;40.57;;;;;;;-4.65;100.00;102892.63;5245064;28;20033;-72
2023/01/21 07:54:46;;;;;;;76.50;40.87;;;;;;;-4.59;100.00;102895.66;5245250;28;20113;-72
2023/01/21 07:57:18;;;;;;;84.53;43.63;;;;;;;-4.58;100.00;102905.06;5243993;28;20033;-72
2023/01/21 07:59:49;;;;;;;80.17;41.47;;;;;;;-4.58;100.00;102905.94;5244991;28;20061;-72
2023/01/21 08:02:21;;;;;;;81.50;40.07;;;;;;;-4.54;100.00;102911.31;5245371;28;20029;-72
2023/01/21 08:04:52;;;;;;;84.40;42.67;;;;;;;-4.48;100.00;102915.25;5244976;28;20059;-72
2023/01/21 08:07:24;;;;;;;81.83;41.50;;;;;;;-4.34;100.00;102920.59;5244687;28;20033;-72
2023/01/21 08:09:55;;;;;;;76.23;41.37;;;;;;;-4.18;100.00;102936.38;5244108;28;20033;-72
2023/01/21 08:12:26;;;;;;;92.50;46.17;;;;;;;-4.19;100.00;102939.66;5243494;28;20041;-72
2023/01/21 08:14:58;;;;;;;86.63;43.00;;;;;;;-3.95;100.00;102943.31;5244975;28;20514;-72
2023/01/21 08:17:29;;;;;;;84.80;43.77;;;;;;;-3.74;100.00;102950.91;5244328;28;20402;-72
2023/01/21 08:20:00;;;;;;;88.30;43.27;;;;;;;-3.70;100.00;102948.75;5244502;28;20493;-72
2023/01/21 08:22:32;;;;;;;97.80;46.87;;;;;;;-3.58;100.00;102955.59;5244854;28;20069;-72
2023/01/21 08:25:04;;;;;;;98.20;45.47;;;;;;;-3.49;100.00;102958.88;5245190;28;20060;-72
2023/01/21 08:27:36;;;;;;;108.05;49.72;;;;;;;-3.42;100.00;102961.13;5249537;28;20067;-72
2023/01/21 08:30:08;;;;;;;98.63;46.27;;;;;;;-3.30;100.00;102966.31;5250215;28;20481;-72
2023/01/21 08:32:39;;;;;;;104.07;49.42;;;;;;;-3.20;100.00;102973.03;5249639;28;20036;-73
2023/01/21 08:35:11;;;;;;;103.70;49.43;;;;;;;-3.16;100.00;102969.94;5249608;28;20033;-72
2023/01/21 08:37:42;;;;;;;106.60;50.23;;;;;;;-3.11;100.00;102981.41;5244647;28;20508;-72
2023/01/21 08:40:14;;;;;;;101.33;50.03;;;;;;;-3.01;100.00;102986.47;5244678;28;20041;-72
2023/01/21 08:42:45;;;;;;;106.87;49.33;;;;;;;-2.91;100.00;102985.53;5243864;28;20025;-72
2023/01/21 08:45:17;;;;;;;103.23;47.93;;;;;;;-2.81;100.00;102982.00;5243788;28;20056;-72
2023/01/21 08:47:48;;;;;;;109.60;51.93;;;;;;;-2.77;100.00;102997.69;5243684;28;20429;-72
2023/01/21 08:50:20;;;;;;;107.40;50.33;;;;;;;-2.76;100.00;103001.13;5244167;28;20388;-72
2023/01/21 08:52:53;;;;;;;105.90;51.90;;;;;;;-2.76;100.00;102999.44;5243649;28;20037;-73
2023/01/21 08:55:25;;;;;;;109.65;50.85;;;;;;;-2.72;100.00;103005.69;5243942;28;20483;-72
2023/01/21 08:57:57;;;;;;;119.63;51.63;;;;;;;-2.68;100.00;103000.03;5244657;28;20604;-72
2023/01/21 09:00:28;;;;;;;114.57;54.57;;;;;;;-2.62;100.00;103007.31;5243803;28;20029;-73
2023/01/21 09:03:00;;;;;;;102.40;48.83;;;;;;;-2.52;100.00;103019.09;5243729;28;20040;-72
2023/01/21 09:05:31;;;;;;;110.90;49.97;;;;;;;-2.50;100.00;103007.34;5243647;28;20029;-73
2023/01/21 09:08:02;;;;;;;112.87;50.07;;;;;;;-2.47;100.00;103011.00;5243706;28;20462;-72
2023/01/21 09:13:23;;;;;;;105.80;49.80;;;;;;;-2.34;100.00;103015.38;5243488;28;20037;-72
2023/01/21 09:15:55;;;;;;;109.63;50.37;;;;;;;-2.36;100.00;103018.63;5242273;28;20473;-72
2023/01/21 09:18:26;;;;;;;116.17;50.40;;;;;;;-2.31;100.00;103019.84;5243400;28;20096;-73
2023/01/21 09:21:02;;;;;;;102.63;48.90;;;;;;;-2.26;100.00;103028.75;5243333;28;20025;-72
2023/01/21 09:23:35;;;;;;;110.22;49.65;;;;;;;-2.28;100.00;103023.50;5243309;28;20102;-72
2023/01/21 09:26:08;;;;;;;;;;;;;;;-2.06;100.00;103023.47;5244650;28;20053;-72
2023/01/21 09:28:41;;;;;;;103.93;48.45;;;;;;;-2.17;100.00;103015.75;5243356;28;19913;-72
2023/01/21 09:31:17;;;;;;;110.05;49.65;;;;;;;-2.15;100.00;103016.78;5243305;28;20029;-72
2023/01/21 09:33:51;;;;;;;110.30;50.03;;;;;;;-2.17;100.00;103015.75;5243054;28;20029;-72
2023/01/21 09:36:25;;;;;;;110.03;50.25;;;;;;;-2.11;100.00;103024.81;5243168;28;20036;-72
2023/01/21 09:38:57;;;;;;;102.88;45.47;;;;;;;-2.09;100.00;103037.69;5242732;28;20512;-72
2023/01/21 09:41:40;;;;;;;103.03;49.70;;;;;;;-2.14;100.00;103039.00;5242564;28;20073;-72
2023/01/21 09:44:30;;;;;;;105.28;49.22;;;;;;;-2.09;100.00;103045.38;5243107;28;20037;-72
2023/01/21 09:47:10;;;;;;;104.50;47.10;;;;;;;-2.11;100.00;103052.00;5242798;28;20101;-72
2023/01/21 09:49:44;;;;;;;102.35;47.55;;;;;;;-1.96;100.00;103057.41;5243020;28;20456;-73
2023/01/21 09:52:44;;;;;;;107.43;47.70;;;;;;;-1.94;100.00;103061.84;5242716;28;20464;-72
2023/01/21 09:55:24;;;;;;;114.13;47.65;;;;;;;-1.95;100.00;103066.81;5242954;28;20030;-72
2023/01/21 09:58:26;;;;;;;107.20;45.60;;;;;;;-1.91;100.00;103054.38;5242712;28;20159;-72
2023/01/21 10:01:34;;;;;;;102.70;45.78;;;;;;;-1.79;100.00;103073.97;5242845;28;20037;-72
2023/01/21 10:04:14;;;;;;;106.15;47.25;;;;;;;-1.83;100.00;103083.97;5241366;28;20052;-72
2023/01/21 10:06:53;;;;;;;109.55;47.17;;;;;;;-1.78;100.00;103080.88;5242417;28;20018;-72
2023/01/21 10:09:54;;;;;;;104.38;45.75;;;;;;;-1.79;100.00;103087.63;5242615;28;20033;-71
2023/01/21 10:12:43;;;;;;;107.28;45.40;;;;;;;-1.73;100.00;103089.78;5241967;28;20037;-72
2023/01/21 10:15:31;;;;;;;111.10;49.10;;;;;;;-1.84;100.00;103086.41;5241296;28;20105;-72
2023/01/21 10:18:10;;;;;;;112.78;47.72;;;;;;;-1.81;100.00;103091.75;5241897;28;20034;-72
2023/01/21 10:20:44;;;;;;;106.13;46.70;;;;;;;-1.76;100.00;103100.66;5242104;28;20087;-72
2023/01/21 10:23:44;;;;;;;103.57;46.58;;;;;;;-1.78;100.00;103093.66;5241938;28;20029;-72
2023/01/21 10:26:16;;;;;;;105.10;47.30;;;;;;;-1.80;100.00;103093.56;5241709;28;20049;-72
2023/01/21 10:28:50;;;;;;;107.80;49.50;;;;;;;-1.75;100.00;103096.47;5241830;28;20037;-72
2023/01/21 10:31:36;;;;;;;112.38;48.25;;;;;;;-1.72;100.00;103106.91;5242414;28;20036;-72
2023/01/21 10:34:17;;;;;;;108.25;48.03;;;;;;;-1.78;100.00;103097.09;5242383;28;20040;-72
2023/01/21 10:37:03;;;;;;;103.82;47.38;;;;;;;-1.69;100.00;103099.44;5241580;28;20465;-72
2023/01/21 10:40:16;;;;;;;117.60;49.97;;;;;;;-1.56;100.00;103103.81;5241847;28;20036;-72
2023/01/21 10:43:07;;;;;;;115.72;49.20;;;;;;;-1.54;100.00;103097.16;5241715;28;20037;-72
2023/01/21 10:45:59;;;;;;;121.82;48.20;;;;;;;-1.51;100.00;103090.59;5241281;28;20033;-72
2023/01/21 10:48:31;;;;;;;115.63;49.55;;;;;;;-1.49;100.00;103093.25;5241695;28;20484;-72
2023/01/21 10:51:14;;;;;;;113.17;49.93;;;;;;;-1.44;100.00;103091.06;5241880;28;20030;-72
2023/01/21 10:54:01;;;;;;;118.25;48.53;;;;;;;-1.30;100.00;103080.16;5241934;28;20032;-71
2023/01/21 10:57:05;;;;;;;112.72;49.35;;;;;;;-1.03;100.00;103073.56;5241696;28;20065;-71
2023/01/21 10:59:39;;;;;;;116.82;52.17;;;;;;;-1.01;100.00;103078.81;5240948;28;20046;-72
2023/01/21 11:02:22;;;;;;;128.48;54.95;;;;;;;-0.74;100.00;103064.50;5241970;28;20044;-72
2023/01/21 11:04:57;;;;;;;121.70;51.63;;;;;;;-0.31;100.00;103074.25;5246162;28;20059;-72
2023/01/21 11:07:36;;;;;;;121.38;50.58;;;;;;;-0.09;100.00;103071.50;5245533;28;20076;-72
2023/01/21 11:10:13;;;;;;;129.80;55.15;;;;;;;0.54;100.00;103079.09;5245462;28;20112;-72
2023/01/21 11:12:44;;;;;;;140.75;56.47;;;;;;;0.88;100.00;103082.97;5245743;28;20029;-72
2023/01/21 11:15:18;;;;;;;138.60;56.27;;;;;;;1.08;100.00;103077.44;5245871;28;20037;-72
2023/01/21 11:17:55;;;;;;;126.72;51.30;;;;;;;0.89;100.00;103087.31;5245230;28;20032;-71
2023/01/21 11:20:39;;;;;;;105.80;46.17;;;;;;;1.01;100.00;103079.50;5245483;28;20426;-73
2023/01/21 11:23:30;;;;;;;90.60;43.65;;;;;;;1.16;100.00;103084.72;5245402;28;20053;-70
2023/01/21 11:26:05;;;;;;;81.15;42.40;;;;;;;1.35;100.00;103081.63;5244415;28;20057;-71
2023/01/21 11:28:36;;;;;;;73.90;40.38;;;;;;;1.72;100.00;103084.75;5245092;28;20388;-70
2023/01/21 11:31:25;;;;;;;72.90;39.97;;;;;;;2.48;100.00;103074.66;5244998;28;20041;-73
2023/01/21 11:34:04;;;;;;;60.42;36.83;;;;;;;3.08;100.00;103088.28;5243697;28;20492;-71
2023/01/21 11:36:35;;;;;;;64.57;37.58;;;;;;;3.33;97.83;103086.16;5245695;28;20108;-70
2023/01/21 11:39:12;;;;;;;58.27;39.23;;;;;;;3.72;95.38;103081.34;5244905;28;20124;-70
2023/01/21 11:41:55;;;;;;;60.00;38.55;;;;;;;3.81;92.58;103087.00;5244853;28;20525;-70
2023/01/21 11:44:26;;;;;;;57.45;37.15;;;;;;;4.11;88.20;103082.53;5245454;28;20075;-70